createdAt,value
2022-11-18T00:01:21.593Z,4.93
2022-11-18T00:03:49.706Z,10.93
2022-11-18T00:06:20.000Z,4.32
2022-11-18T00:08:47.831Z,3.25
2022-11-18T00:11:38.410Z,6.82
2022-11-18T00:14:21.414Z,3.88
2022-11-18T00:16:59.570Z,4.75
2022-11-18T00:19:29.717Z,6.95
2022-11-18T00:21:58.032Z,5.03
2022-11-18T00:24:26.590Z,3.97
2022-11-18T00:26:55.153Z,8.77
2022-11-18T00:29:23.127Z,3.85
2022-11-18T00:31:50.982Z,3.58
2022-11-18T00:34:19.754Z,5.30
2022-11-18T00:36:48.653Z,7.40
2022-11-18T00:39:19.262Z,7.35
2022-11-18T00:42:05.103Z,2.00
2022-11-18T00:44:32.740Z,6.38
2022-11-18T00:47:00.348Z,3.40
2022-11-18T00:49:27.950Z,5.85
2022-11-18T00:51:55.410Z,6.63
2022-11-18T00:54:22.913Z,7.43
2022-11-18T00:56:50.580Z,7.72
2022-11-18T00:59:18.381Z,5.05
2022-11-18T01:01:46.377Z,5.07
2022-11-18T01:04:13.983Z,6.10
2022-11-18T01:06:42.038Z,6.80
2022-11-18T01:09:09.554Z,3.20
2022-11-18T01:11:54.582Z,4.00
2022-11-18T01:14:22.240Z,4.22
2022-11-18T01:16:51.296Z,4.43
2022-11-18T01:19:19.946Z,5.55
2022-11-18T01:21:47.673Z,11.77
2022-11-18T01:24:15.363Z,4.43
2022-11-18T01:26:43.484Z,10.32
2022-11-18T01:29:11.462Z,8.05
2022-11-18T01:31:55.232Z,5.68
2022-11-18T01:34:29.206Z,6.35
2022-11-18T01:36:58.017Z,4.28
2022-11-18T01:39:26.208Z,4.32
2022-11-18T01:41:53.841Z,10.93
2022-11-18T01:44:58.384Z,4.60
2022-11-18T01:47:29.596Z,4.22
2022-11-18T01:49:57.815Z,6.00
2022-11-18T01:52:25.663Z,7.50
2022-11-18T01:54:58.942Z,5.63
2022-11-18T01:57:28.180Z,4.80
2022-11-18T01:59:58.884Z,5.22
2022-11-18T02:02:28.174Z,7.60
2022-11-18T02:04:58.067Z,7.65
2022-11-18T02:07:26.446Z,5.20
2022-11-18T02:09:56.245Z,3.85
2022-11-18T02:12:24.252Z,11.02
2022-11-18T02:14:52.826Z,4.78
2022-11-18T02:18:08.355Z,5.47
2022-11-18T02:20:43.098Z,8.55
2022-11-18T02:23:30.777Z,5.00
2022-11-18T02:26:22.188Z,6.57
2022-11-18T02:29:13.093Z,4.50
2022-11-18T02:32:02.979Z,9.93
2022-11-18T02:34:30.491Z,4.30
2022-11-18T02:37:13.623Z,8.95
2022-11-18T02:39:53.220Z,7.28
2022-11-18T02:42:23.022Z,6.22
2022-11-18T02:44:56.583Z,4.93
2022-11-18T02:47:28.114Z,7.53
2022-11-18T02:50:01.418Z,5.97
2022-11-18T02:52:29.138Z,5.35
2022-11-18T02:54:58.471Z,12.52
2022-11-18T02:57:30.198Z,10.88
2022-11-18T02:59:57.774Z,6.53
2022-11-18T03:02:25.385Z,8.60
2022-11-18T03:04:57.428Z,10.20
2022-11-18T03:07:37.293Z,4.53
2022-11-18T03:10:05.687Z,10.35
2022-11-18T03:12:41.535Z,8.05
2022-11-18T03:15:35.819Z,11.70
2022-11-18T03:18:21.922Z,6.25
2022-11-18T03:20:58.883Z,6.93
2022-11-18T03:23:38.815Z,8.40
2022-11-18T03:26:23.487Z,6.65
2022-11-18T03:29:02.765Z,8.48
2022-11-18T03:31:57.067Z,8.75
2022-11-18T03:34:39.247Z,9.52
2022-11-18T03:37:10.933Z,10.48
2022-11-18T03:39:43.968Z,10.38
2022-11-18T03:42:22.882Z,5.88
2022-11-18T03:44:57.903Z,7.25
2022-11-18T03:47:37.356Z,7.25
2022-11-18T03:50:17.778Z,18.83
2022-11-18T03:52:47.184Z,6.00
2022-11-18T03:55:20.375Z,10.68
2022-11-18T03:57:57.552Z,8.52
2022-11-18T04:00:30.593Z,10.82
2022-11-18T04:02:58.168Z,7.45
2022-11-18T04:05:25.865Z,8.27
2022-11-18T04:07:56.217Z,9.43
2022-11-18T04:10:30.716Z,15.02
2022-11-18T04:13:06.453Z,12.25
2022-11-18T04:15:37.876Z,12.65
2022-11-18T04:18:05.604Z,15.65
2022-11-18T04:20:33.821Z,6.82
2022-11-18T04:23:01.867Z,8.70
2022-11-18T04:25:29.403Z,9.60
2022-11-18T04:27:56.866Z,9.60
2022-11-18T04:30:24.526Z,10.13
2022-11-18T04:32:52.076Z,13.40
2022-11-18T04:35:19.608Z,8.50
2022-11-18T04:37:47.194Z,7.47
2022-11-18T04:40:14.779Z,14.93
2022-11-18T04:42:42.263Z,9.68
2022-11-18T04:45:10.555Z,9.65
2022-11-18T04:47:38.765Z,9.32
2022-11-18T04:50:06.908Z,14.15
2022-11-18T04:52:34.482Z,8.88
2022-11-18T04:55:02.014Z,11.35
2022-11-18T04:57:29.510Z,8.68
2022-11-18T04:59:56.998Z,9.85
2022-11-18T05:02:24.460Z,9.70
2022-11-18T05:04:51.970Z,8.93
2022-11-18T05:07:19.568Z,11.82
2022-11-18T05:09:47.074Z,11.93
2022-11-18T05:12:33.485Z,14.60
2022-11-18T05:15:01.500Z,10.13
2022-11-18T05:17:29.437Z,12.43
2022-11-18T05:19:56.946Z,9.48
2022-11-18T05:22:24.500Z,13.48
2022-11-18T05:24:52.022Z,9.73
2022-11-18T05:27:19.634Z,15.23
2022-11-18T05:29:47.142Z,9.13
2022-11-18T05:32:14.770Z,9.32
2022-11-18T05:34:43.518Z,10.80
2022-11-18T05:37:11.722Z,7.32
2022-11-18T05:39:39.391Z,11.43
2022-11-18T05:42:24.660Z,7.22
2022-11-18T05:44:57.791Z,10.07
2022-11-18T05:47:26.148Z,12.75
2022-11-18T05:49:53.715Z,11.75
2022-11-18T05:52:21.290Z,9.23
2022-11-18T05:54:52.015Z,11.15
2022-11-18T05:57:19.555Z,10.57
2022-11-18T05:59:47.119Z,11.77
2022-11-18T06:02:19.713Z,11.38
2022-11-18T06:04:51.693Z,8.20
2022-11-18T06:07:49.310Z,10.00
2022-11-18T06:10:22.354Z,8.38
2022-11-18T06:12:53.779Z,12.68
2022-11-18T06:15:28.683Z,8.17
2022-11-18T06:18:01.661Z,13.00
2022-11-18T06:20:29.864Z,8.90
2022-11-18T06:22:59.122Z,13.32
2022-11-18T06:25:26.767Z,11.95
2022-11-18T06:27:57.620Z,10.32
2022-11-18T06:30:25.083Z,12.57
2022-11-18T06:32:52.569Z,9.63
2022-11-18T06:35:20.260Z,7.45
2022-11-18T06:37:48.244Z,5.78
2022-11-18T06:40:15.790Z,17.55
2022-11-18T06:43:01.018Z,9.02
2022-11-18T06:45:28.750Z,7.68
2022-11-18T06:48:00.305Z,13.50
2022-11-18T06:50:29.420Z,9.30
2022-11-18T06:52:57.569Z,11.73
2022-11-18T06:55:25.292Z,7.80
2022-11-18T06:57:52.879Z,11.55
2022-11-18T07:00:20.622Z,6.57
2022-11-18T07:02:48.095Z,9.48
2022-11-18T07:05:15.617Z,6.53
2022-11-18T07:07:43.103Z,7.65
2022-11-18T07:10:11.394Z,5.30
2022-11-18T07:12:38.880Z,5.30
2022-11-18T07:15:06.876Z,7.43
2022-11-18T07:17:34.473Z,8.20
2022-11-18T07:20:01.980Z,9.10
2022-11-18T07:22:29.611Z,6.32
2022-11-18T07:24:57.177Z,9.45
2022-11-18T07:27:24.717Z,13.10
2022-11-18T07:29:52.197Z,8.73
2022-11-18T07:32:19.790Z,6.40
2022-11-18T07:34:47.311Z,5.32
2022-11-18T07:37:14.864Z,7.18
2022-11-18T07:39:42.425Z,5.32
2022-11-18T07:42:10.699Z,7.22
2022-11-18T07:44:38.235Z,8.73
2022-11-18T07:47:05.842Z,6.43
2022-11-18T07:49:33.364Z,7.50
2022-11-18T07:52:00.888Z,8.57
2022-11-18T07:54:28.423Z,5.82
2022-11-18T07:56:55.946Z,7.43
2022-11-18T07:59:23.509Z,5.25
2022-11-18T08:01:51.075Z,9.73
2022-11-18T08:04:18.715Z,5.03
2022-11-18T08:06:46.262Z,6.47
2022-11-18T08:09:13.828Z,11.55
2022-11-18T08:11:41.939Z,8.75
2022-11-18T08:14:09.546Z,15.57
2022-11-18T08:16:37.093Z,7.50
2022-11-18T08:19:04.668Z,10.75
2022-11-18T08:21:32.346Z,7.20
2022-11-18T08:24:00.138Z,10.43
2022-11-18T08:26:28.479Z,7.10
2022-11-18T08:28:56.418Z,6.32
2022-11-18T08:31:26.347Z,6.55
2022-11-18T08:34:04.618Z,8.25
2022-11-18T08:36:34.782Z,10.30
2022-11-18T08:39:04.343Z,8.70
2022-11-18T08:41:43.585Z,6.20
2022-11-18T08:44:13.755Z,4.88
2022-11-18T08:46:41.891Z,4.47
2022-11-18T08:49:09.516Z,7.68
2022-11-18T08:51:37.019Z,6.40
2022-11-18T08:54:04.654Z,4.70
2022-11-18T08:56:32.137Z,10.20
2022-11-18T08:58:59.642Z,7.68
2022-11-18T09:01:28.386Z,9.43
2022-11-18T09:03:57.576Z,4.65
2022-11-18T09:06:25.414Z,6.68
2022-11-18T09:08:53.439Z,7.15
2022-11-18T09:11:23.930Z,6.15
2022-11-18T09:16:45.050Z,4.95
2022-11-18T09:19:40.057Z,6.65
2022-11-18T09:22:00.869Z,5.47
2022-11-18T09:24:28.635Z,9.20
2022-11-18T09:26:56.375Z,4.93
2022-11-18T09:29:26.314Z,6.50
2022-11-18T09:31:55.411Z,9.40
2022-11-18T09:34:24.005Z,6.93
2022-11-18T09:36:55.795Z,8.98
2022-11-18T09:39:26.433Z,9.18
2022-11-18T09:42:28.576Z,5.88
2022-11-18T09:45:24.723Z,10.15
2022-11-18T09:47:53.375Z,8.30
2022-11-18T09:53:20.889Z,6.97
2022-11-18T09:55:50.065Z,5.93
2022-11-18T09:58:44.575Z,4.93
2022-11-18T10:01:20.764Z,7.53
2022-11-18T10:03:48.290Z,8.43
2022-11-18T10:06:26.365Z,6.18
2022-11-18T10:08:58.174Z,6.00
2022-11-18T10:11:29.140Z,3.85
2022-11-18T10:14:15.886Z,6.00
2022-11-18T10:16:58.744Z,9.82
2022-11-18T10:19:34.954Z,5.55
2022-11-18T10:22:23.983Z,6.80
2022-11-18T10:24:55.096Z,5.18
2022-11-18T10:27:27.923Z,8.38
2022-11-18T10:29:58.588Z,5.93
2022-11-18T10:32:26.217Z,8.88
2022-11-18T10:34:59.512Z,4.72
2022-11-18T10:37:39.031Z,3.45
2022-11-18T10:40:26.614Z,6.97
2022-11-18T10:42:54.289Z,5.35
2022-11-18T10:45:25.044Z,5.93
2022-11-18T10:48:09.279Z,9.88
2022-11-18T10:50:39.529Z,9.40
2022-11-18T10:53:27.836Z,9.30
2022-11-18T10:56:08.857Z,7.53
2022-11-18T10:58:38.633Z,7.95
2022-11-18T11:01:07.381Z,5.78
2022-11-18T11:03:43.369Z,11.48
2022-11-18T11:06:30.791Z,6.72
2022-11-18T11:09:02.079Z,8.57
2022-11-18T11:11:35.611Z,8.60
2022-11-18T11:14:18.717Z,8.98
2022-11-18T11:16:59.889Z,4.75
2022-11-18T11:19:36.640Z,8.05
2022-11-18T11:22:04.153Z,8.40
2022-11-18T11:24:31.651Z,6.65
2022-11-18T11:30:14.435Z,7.90
2022-11-18T11:32:56.946Z,7.53
2022-11-18T11:37:59.066Z,11.50
2022-11-18T11:40:31.257Z,9.65
2022-11-18T11:43:04.552Z,7.00
2022-11-18T11:45:40.468Z,11.20
2022-11-18T11:48:29.346Z,8.63
2022-11-18T11:51:05.233Z,8.75
2022-11-18T11:53:55.074Z,10.95
2022-11-18T11:56:47.661Z,8.45
2022-11-18T11:59:27.320Z,10.13
2022-11-18T12:01:54.816Z,9.38
2022-11-18T12:04:44.918Z,6.78
2022-11-18T12:07:20.470Z,6.40
2022-11-18T12:10:21.635Z,13.85
2022-11-18T12:13:08.921Z,17.95
2022-11-18T12:15:42.195Z,7.88
2022-11-18T12:18:50.183Z,11.27
2022-11-18T12:21:45.608Z,7.80
2022-11-18T12:24:18.991Z,8.52
2022-11-18T12:26:48.722Z,14.25
2022-11-18T12:29:19.380Z,13.93
2022-11-18T12:31:54.340Z,15.02
2022-11-18T12:34:32.883Z,13.82
2022-11-18T12:37:26.497Z,9.57
2022-11-18T12:39:56.751Z,10.65
2022-11-18T12:42:55.161Z,10.43
2022-11-18T12:45:43.355Z,14.93
2022-11-18T12:48:28.844Z,10.30
2022-11-18T12:50:58.924Z,11.38
2022-11-18T12:53:45.994Z,11.65
2022-11-18T12:56:13.585Z,14.77
2022-11-18T12:58:46.081Z,10.80
2022-11-18T13:01:17.220Z,11.63
2022-11-18T13:03:45.253Z,15.13
2022-11-18T13:06:25.274Z,11.27
2022-11-18T13:08:56.809Z,16.15
2022-11-18T13:11:49.502Z,17.13
2022-11-18T13:17:19.848Z,14.55
2022-11-18T13:19:59.858Z,15.50
2022-11-18T13:22:45.225Z,10.50
2022-11-18T13:25:26.491Z,11.27
2022-11-18T13:28:11.718Z,14.13
2022-11-18T13:30:50.709Z,12.73
2022-11-18T13:33:18.271Z,14.70
2022-11-18T13:35:45.876Z,21.00
2022-11-18T13:38:28.105Z,10.27
2022-11-18T13:41:13.000Z,10.10
2022-11-18T13:43:40.493Z,17.30
2022-11-18T13:46:17.319Z,17.05
2022-11-18T13:48:58.474Z,13.00
2022-11-18T13:51:26.670Z,11.75
2022-11-18T13:53:54.345Z,14.00
2022-11-18T13:56:34.865Z,14.00
2022-11-18T13:59:20.645Z,15.05
2022-11-18T14:04:51.950Z,12.00
2022-11-18T14:07:36.558Z,10.40
2022-11-18T14:10:08.931Z,11.45
2022-11-18T14:15:43.297Z,13.63
2022-11-18T14:18:46.474Z,18.23
2022-11-18T14:21:14.748Z,14.60
2022-11-18T14:23:45.228Z,14.35
2022-11-18T14:26:12.732Z,14.57
2022-11-18T14:28:40.623Z,14.23
2022-11-18T14:31:16.480Z,10.55
2022-11-18T14:34:23.542Z,12.38
2022-11-18T14:36:52.685Z,11.32
2022-11-18T14:39:27.801Z,8.20
2022-11-18T14:41:56.551Z,13.07
2022-11-18T14:44:26.788Z,10.60
2022-11-18T14:46:59.988Z,8.35
2022-11-18T14:49:30.799Z,10.82
2022-11-18T14:51:58.908Z,9.18
2022-11-18T14:54:27.970Z,11.20
2022-11-18T14:57:00.873Z,13.98
2022-11-18T14:59:28.987Z,10.25
2022-11-18T15:01:58.543Z,17.95
2022-11-18T15:04:26.336Z,12.68
2022-11-18T15:06:54.285Z,13.65
2022-11-18T15:09:22.151Z,11.57
2022-11-18T15:11:49.788Z,11.15
2022-11-18T15:14:17.702Z,12.90
2022-11-18T15:16:45.433Z,14.35
2022-11-18T15:19:16.588Z,15.73
2022-11-18T15:21:45.303Z,12.27
2022-11-18T15:24:12.950Z,21.13
2022-11-18T15:26:43.516Z,10.90
2022-11-18T15:29:20.383Z,12.70
2022-11-18T15:31:48.888Z,17.58
2022-11-18T15:34:18.258Z,17.67
2022-11-18T15:36:46.429Z,14.43
2022-11-18T15:39:14.212Z,13.88
2022-11-18T15:41:43.503Z,12.35
2022-11-18T15:44:11.968Z,11.40
2022-11-18T15:46:40.012Z,16.90
2022-11-18T15:49:09.676Z,14.98
2022-11-18T15:51:37.967Z,15.38
2022-11-18T15:54:05.518Z,12.68
2022-11-18T15:56:34.245Z,17.05
2022-11-18T15:59:02.830Z,17.90
2022-11-18T16:01:38.492Z,20.85
2022-11-18T16:04:08.060Z,15.20
2022-11-18T16:06:36.012Z,13.93
2022-11-18T16:09:05.045Z,10.88
2022-11-18T16:11:51.081Z,14.20
2022-11-18T16:14:21.873Z,13.45
2022-11-18T16:16:51.629Z,17.23
2022-11-18T16:19:22.022Z,14.32
2022-11-18T16:21:52.700Z,15.27
2022-11-18T16:24:23.227Z,17.63
2022-11-18T16:26:51.332Z,13.23
2022-11-18T16:29:20.839Z,15.40
2022-11-18T16:31:52.301Z,16.45
2022-11-18T16:34:20.026Z,16.80
2022-11-18T16:36:50.151Z,15.60
2022-11-18T16:39:20.825Z,14.25
2022-11-18T16:41:48.454Z,17.60
2022-11-18T16:44:17.406Z,16.08
2022-11-18T16:46:50.568Z,14.80
2022-11-18T16:49:20.572Z,17.77
2022-11-18T16:51:51.746Z,15.77
2022-11-18T16:54:30.783Z,19.42
2022-11-18T16:57:00.281Z,15.25
2022-11-18T16:59:29.940Z,16.00
2022-11-18T17:01:59.608Z,15.10
2022-11-18T17:04:29.011Z,15.07
2022-11-18T17:06:59.626Z,14.15
2022-11-18T17:09:28.684Z,16.52
2022-11-18T17:11:57.061Z,16.40
2022-11-18T17:14:24.637Z,20.58
2022-11-18T17:16:53.568Z,16.00
2022-11-18T17:19:23.378Z,15.35
2022-11-18T17:21:52.777Z,13.27
2022-11-18T17:24:23.037Z,13.50
2022-11-18T17:26:52.066Z,18.65
2022-11-18T17:29:20.167Z,14.40
2022-11-18T17:31:47.992Z,12.82
2022-11-18T17:34:17.029Z,16.15
2022-11-18T17:36:44.976Z,20.33
2022-11-18T17:39:13.876Z,16.42
2022-11-18T17:41:59.090Z,15.70
2022-11-18T17:44:28.506Z,17.73
2022-11-18T17:46:56.095Z,19.70
2022-11-18T17:49:23.593Z,18.00
2022-11-18T17:51:52.192Z,23.02
2022-11-18T17:54:20.877Z,23.70
2022-11-18T17:56:49.894Z,20.60
2022-11-18T17:59:17.652Z,24.17
2022-11-18T18:01:46.564Z,20.95
2022-11-18T18:04:20.092Z,18.05
2022-11-18T18:06:52.881Z,19.27
2022-11-18T18:09:28.548Z,19.05
2022-11-18T18:11:57.800Z,18.17
2022-11-18T18:14:24.309Z,20.10
2022-11-18T18:16:52.947Z,24.60
2022-11-18T18:19:22.908Z,20.60
2022-11-18T18:21:50.683Z,18.30
2022-11-18T18:24:20.723Z,17.27
2022-11-18T18:26:48.924Z,24.67
2022-11-18T18:29:16.628Z,20.70
2022-11-18T18:31:44.588Z,20.13
2022-11-18T18:34:12.162Z,18.85
2022-11-18T18:36:40.846Z,21.45
2022-11-18T18:39:08.324Z,24.27
2022-11-18T18:41:36.382Z,22.15
2022-11-18T18:44:03.994Z,24.60
2022-11-18T18:46:32.241Z,16.05
2022-11-18T18:49:08.934Z,22.35
2022-11-18T18:51:39.606Z,19.77
2022-11-18T18:54:09.040Z,25.30
2022-11-18T18:56:36.720Z,23.98
2022-11-18T18:59:04.468Z,16.85
2022-11-18T19:01:33.490Z,22.42
2022-11-18T19:04:03.686Z,20.75
2022-11-18T19:09:26.859Z,22.90
2022-11-18T19:12:12.624Z,22.77
2022-11-18T19:14:40.342Z,24.05
2022-11-18T19:17:12.571Z,29.77
2022-11-18T19:19:59.674Z,24.17
2022-11-18T19:22:30.613Z,21.95
2022-11-18T19:24:59.308Z,22.02
2022-11-18T19:27:27.056Z,20.67
2022-11-18T19:29:54.620Z,24.17
2022-11-18T19:32:22.292Z,24.98
2022-11-18T19:34:49.878Z,19.40
2022-11-18T19:37:17.412Z,23.83
2022-11-18T19:39:44.852Z,21.85
2022-11-18T19:42:12.388Z,20.88
2022-11-18T19:44:40.224Z,21.83
2022-11-18T19:47:07.719Z,24.55
2022-11-18T19:49:35.256Z,18.65
2022-11-18T19:52:03.298Z,17.30
2022-11-18T19:54:30.921Z,19.00
2022-11-18T19:56:58.472Z,19.17
2022-11-18T19:59:25.986Z,19.17
2022-11-18T20:01:53.556Z,19.00
2022-11-18T20:04:21.066Z,15.25
2022-11-18T20:06:49.008Z,19.48
2022-11-18T20:09:16.816Z,17.65
2022-11-18T20:11:45.641Z,17.15
2022-11-18T20:14:13.503Z,14.38
2022-11-18T20:16:41.888Z,18.33
2022-11-18T20:19:13.469Z,15.32
2022-11-18T20:21:43.980Z,18.50
2022-11-18T20:24:16.845Z,20.95
2022-11-18T20:26:44.953Z,22.70
2022-11-18T20:29:12.951Z,17.50
2022-11-18T20:31:40.506Z,19.30
2022-11-18T20:34:08.386Z,29.00
2022-11-18T20:36:37.546Z,15.45
2022-11-18T20:39:12.959Z,18.08
2022-11-18T20:41:40.390Z,22.65
2022-11-18T20:44:08.060Z,22.67
2022-11-18T20:46:35.512Z,27.02
2022-11-18T20:49:03.018Z,27.50
2022-11-18T20:51:30.716Z,26.48
2022-11-18T20:53:59.875Z,22.23
2022-11-18T20:56:28.666Z,27.45
2022-11-18T20:58:58.208Z,27.52
2022-11-18T21:01:28.533Z,28.33
2022-11-18T21:04:01.506Z,31.40
2022-11-18T21:06:31.937Z,24.95
2022-11-18T21:09:02.454Z,32.50
2022-11-18T21:11:30.440Z,27.30
2022-11-18T21:14:20.042Z,27.70
2022-11-18T21:16:49.493Z,27.98
2022-11-18T21:19:17.286Z,28.67
2022-11-18T21:21:48.867Z,28.75
2022-11-18T21:24:18.893Z,31.00
2022-11-18T21:26:48.601Z,24.85
2022-11-18T21:29:17.854Z,26.63
2022-11-18T21:31:47.043Z,27.63
2022-11-18T21:34:15.934Z,27.00
2022-11-18T21:36:47.865Z,25.40
2022-11-18T21:39:18.337Z,22.98
2022-11-18T21:41:50.620Z,23.70
2022-11-18T21:44:21.352Z,22.63
2022-11-18T21:46:48.846Z,34.25
2022-11-18T21:49:17.135Z,22.88
2022-11-18T21:51:45.211Z,23.90
2022-11-18T21:54:15.792Z,20.58
2022-11-18T21:56:43.496Z,26.88
2022-11-18T21:59:10.977Z,22.05
2022-11-18T22:01:38.410Z,25.20
2022-11-18T22:04:06.807Z,25.92
2022-11-18T22:06:35.361Z,23.90
2022-11-18T22:09:05.980Z,27.58
2022-11-18T22:11:33.451Z,28.90
2022-11-18T22:14:01.016Z,25.90
2022-11-18T22:16:28.564Z,24.30
2022-11-18T22:19:01.522Z,23.52
2022-11-18T22:21:32.641Z,22.30
2022-11-18T22:24:01.877Z,21.83
2022-11-18T22:26:30.467Z,22.58
2022-11-18T22:28:59.255Z,22.17
2022-11-18T22:31:28.865Z,20.75
2022-11-18T22:33:57.777Z,23.63
2022-11-18T22:36:27.424Z,24.27
2022-11-18T22:38:56.308Z,27.55
2022-11-18T22:41:44.080Z,28.70
2022-11-18T22:44:14.762Z,24.35
2022-11-18T22:46:46.093Z,23.25
2022-11-18T22:49:16.490Z,18.65
2022-11-18T22:51:44.225Z,25.10
2022-11-18T22:54:42.829Z,23.73
2022-11-18T22:57:01.657Z,25.23
2022-11-18T22:59:29.107Z,18.83
2022-11-18T23:01:56.752Z,28.15
2022-11-18T23:04:24.279Z,22.92
2022-11-18T23:06:51.787Z,23.88
2022-11-18T23:09:19.552Z,24.20
2022-11-18T23:12:04.402Z,22.38
2022-11-18T23:14:32.080Z,26.05
2022-11-18T23:16:59.944Z,26.48
2022-11-18T23:19:27.441Z,24.40
2022-11-18T23:21:55.005Z,24.85
2022-11-18T23:24:22.953Z,26.73
2022-11-18T23:26:50.757Z,31.13
2022-11-18T23:29:18.411Z,30.65
2022-11-18T23:31:46.320Z,24.23
2022-11-18T23:34:15.708Z,28.65
2022-11-18T23:36:44.052Z,15.27
2022-11-18T23:39:11.916Z,17.50
2022-11-18T23:41:39.665Z,31.23
2022-11-18T23:44:07.838Z,30.73
2022-11-18T23:46:35.469Z,31.58
2022-11-18T23:49:02.964Z,26.73
2022-11-18T23:51:30.520Z,25.88
2022-11-18T23:53:59.240Z,27.63
2022-11-18T23:56:28.514Z,33.03
2022-11-18T23:58:57.428Z,29.70
